Guatemala City, Guatemala
Current Conditions -  °F | °C
As of 10:00 AM on Thursday 18 Dec 2014 (Local Time) from MGGT Reporting Station
Broken Clouds Broken Clouds  
Wind Chill: 59°   Ceiling: 1400
Heat Index: 59°   Visibility: 4mi
Dew Point: 54°   Wind: 14mph
Humidity: 82%   Direction: 360°N
Pressure: 30.36"   Gusts: NA
Location:  14.58°N, 90.52°W
Report Text: MGGT 181600Z 36012KT 7000 SCT008 BKN014 15/12 Q1028 A3036 BR
Loading
Personal Weather Stations






























Interactive Weather Map New forecast layout! Learn more

10-Day Weather Forecast

Advertisements
Track Severe Weather on mobile